createdAt,value
2022-11-15T00:01:42.360Z,23.65
2022-11-15T00:04:12.892Z,24.40
2022-11-15T00:06:42.908Z,23.63
2022-11-15T00:09:11.744Z,24.23
2022-11-15T00:11:40.302Z,23.47
2022-11-15T00:14:08.977Z,23.43
2022-11-15T00:16:37.616Z,24.02
2022-11-15T00:19:06.254Z,23.70
2022-11-15T00:21:34.886Z,23.57
2022-11-15T00:24:05.239Z,24.50
2022-11-15T00:26:33.852Z,22.50
2022-11-15T00:29:02.480Z,22.02
2022-11-15T00:31:31.071Z,23.53
2022-11-15T00:33:59.650Z,23.90
2022-11-15T00:36:28.306Z,24.50
2022-11-15T00:38:56.984Z,25.03
2022-11-15T00:41:27.003Z,24.10
2022-11-15T00:43:55.792Z,22.48
2022-11-15T00:46:24.409Z,25.13
2022-11-15T00:48:53.058Z,25.75
2022-11-15T00:51:21.898Z,26.43
2022-11-15T00:53:50.574Z,24.90
2022-11-15T00:56:19.175Z,24.73
2022-11-15T00:58:49.345Z,23.13
2022-11-15T01:01:18.019Z,26.30
2022-11-15T01:03:46.679Z,24.73
2022-11-15T01:06:15.295Z,22.87
2022-11-15T01:08:44.015Z,25.53
2022-11-15T01:11:14.528Z,26.70
2022-11-15T01:13:43.213Z,27.75
2022-11-15T01:16:17.650Z,28.50
2022-11-15T01:18:47.316Z,28.13
2022-11-15T01:21:20.011Z,27.00
2022-11-15T01:23:48.565Z,29.02
2022-11-15T01:26:18.998Z,30.25
2022-11-15T01:28:47.633Z,31.40
2022-11-15T01:31:21.330Z,29.95
2022-11-15T01:33:51.163Z,30.02
2022-11-15T01:36:23.301Z,31.00
2022-11-15T01:38:56.394Z,31.07
2022-11-15T01:41:28.657Z,30.67
2022-11-15T01:43:59.886Z,29.85
2022-11-15T01:46:35.874Z,29.13
2022-11-15T01:49:15.304Z,28.05
2022-11-15T01:51:44.136Z,30.48
2022-11-15T01:54:19.505Z,31.57
2022-11-15T01:56:53.205Z,29.73
2022-11-15T01:59:23.462Z,30.48
2022-11-15T02:02:08.526Z,28.50
2022-11-15T02:04:42.403Z,30.85
2022-11-15T02:07:15.525Z,30.00
2022-11-15T02:09:46.306Z,35.20
2022-11-15T02:12:20.703Z,35.07
2022-11-15T02:14:54.608Z,34.22
2022-11-15T02:17:51.163Z,35.78
2022-11-15T02:21:03.348Z,34.53
2022-11-15T02:24:19.626Z,35.33
2022-11-15T02:27:45.378Z,34.72
2022-11-15T02:30:40.318Z,31.97
2022-11-15T02:33:29.291Z,36.63
2022-11-15T02:36:03.569Z,35.33
2022-11-15T02:38:42.610Z,34.00
2022-11-15T02:41:17.775Z,34.27
2022-11-15T02:43:58.256Z,33.50
2022-11-15T02:46:55.144Z,32.20
2022-11-15T02:49:26.300Z,33.67
2022-11-15T02:51:57.788Z,38.83
2022-11-15T02:54:30.780Z,37.15
2022-11-15T02:57:06.426Z,38.17
2022-11-15T03:00:07.682Z,36.40
2022-11-15T03:03:01.305Z,38.08
2022-11-15T03:05:37.834Z,39.60
2022-11-15T03:08:16.922Z,39.13
2022-11-15T03:11:00.163Z,41.03
2022-11-15T03:13:36.349Z,41.63
2022-11-15T03:16:11.492Z,44.50
2022-11-15T03:18:48.618Z,44.83
2022-11-15T03:21:21.083Z,41.90
2022-11-15T03:23:52.134Z,43.50
2022-11-15T03:26:25.794Z,42.95
2022-11-15T03:29:00.570Z,43.57
2022-11-15T03:31:51.739Z,48.10
2022-11-15T03:34:30.698Z,47.25
2022-11-15T03:37:00.026Z,48.75
2022-11-15T03:39:31.322Z,48.67
2022-11-15T03:42:21.103Z,49.95
2022-11-15T03:45:00.827Z,54.33
2022-11-15T03:47:36.769Z,58.50
2022-11-15T03:50:13.351Z,56.47
2022-11-15T03:52:44.494Z,55.60
2022-11-15T03:55:18.266Z,57.17
2022-11-15T03:57:47.114Z,53.80
2022-11-15T04:00:16.359Z,54.45
2022-11-15T04:02:44.925Z,52.45
2022-11-15T04:05:14.879Z,53.80
2022-11-15T04:07:43.436Z,58.42
2022-11-15T04:10:13.394Z,63.67
2022-11-15T04:12:47.399Z,59.40
2022-11-15T04:15:19.258Z,60.08
2022-11-15T04:17:51.046Z,60.83
2022-11-15T04:20:42.299Z,66.07
2022-11-15T04:23:32.249Z,58.93
2022-11-15T04:26:04.464Z,59.47
2022-11-15T04:28:33.165Z,54.60
2022-11-15T04:31:02.173Z,55.67
2022-11-15T04:33:31.185Z,57.20
2022-11-15T04:36:18.718Z,59.05
2022-11-15T04:38:47.304Z,54.92
2022-11-15T04:41:15.929Z,55.95
2022-11-15T04:43:44.520Z,57.58
2022-11-15T04:46:13.110Z,56.67
2022-11-15T04:48:41.741Z,63.15
2022-11-15T04:51:11.704Z,62.83
2022-11-15T04:53:40.362Z,56.00
2022-11-15T04:56:09.744Z,66.05
2022-11-15T04:58:38.338Z,64.93
2022-11-15T05:01:10.273Z,60.15
2022-11-15T05:03:53.080Z,59.30
2022-11-15T05:06:24.072Z,57.93
2022-11-15T05:08:52.861Z,60.90
2022-11-15T05:11:21.644Z,61.95
2022-11-15T05:13:50.526Z,57.87
2022-11-15T05:16:19.207Z,56.15
2022-11-15T05:18:47.885Z,55.55
2022-11-15T05:21:17.753Z,56.25
2022-11-15T05:23:48.135Z,55.47
2022-11-15T05:26:20.484Z,53.60
2022-11-15T05:28:49.172Z,53.70
2022-11-15T05:31:18.622Z,53.28
2022-11-15T05:33:47.633Z,53.67
2022-11-15T05:36:23.970Z,53.97
2022-11-15T05:38:54.247Z,54.53
2022-11-15T05:41:31.241Z,54.05
2022-11-15T05:44:02.814Z,53.58
2022-11-15T05:46:32.288Z,51.77
2022-11-15T05:49:01.841Z,59.55
2022-11-15T05:51:32.592Z,54.97
2022-11-15T05:54:04.106Z,60.65
2022-11-15T05:56:32.970Z,58.83
2022-11-15T05:59:02.046Z,55.40
2022-11-15T06:01:31.019Z,48.30
2022-11-15T06:03:59.803Z,47.35
2022-11-15T06:06:30.210Z,49.20
2022-11-15T06:08:58.855Z,45.50
2022-11-15T06:11:29.021Z,44.47
2022-11-15T06:13:58.996Z,45.50
2022-11-15T06:16:27.580Z,44.25
2022-11-15T06:18:56.198Z,44.13
2022-11-15T06:21:25.291Z,43.70
2022-11-15T06:23:54.037Z,44.27
2022-11-15T06:26:23.001Z,43.03
2022-11-15T06:28:53.155Z,43.08
2022-11-15T06:31:21.946Z,42.75
2022-11-15T06:33:50.786Z,38.63
2022-11-15T06:36:20.096Z,38.13
2022-11-15T06:38:49.239Z,35.78
2022-11-15T06:41:18.843Z,36.47
2022-11-15T06:43:47.457Z,34.65
2022-11-15T06:46:17.456Z,34.20
2022-11-15T06:48:46.236Z,35.90
2022-11-15T06:51:14.865Z,33.97
2022-11-15T06:53:43.505Z,32.58
2022-11-15T06:56:12.179Z,34.10
2022-11-15T06:58:40.730Z,32.40
2022-11-15T07:01:12.053Z,33.83
2022-11-15T07:03:44.246Z,33.05
2022-11-15T07:06:13.301Z,32.30
2022-11-15T07:08:42.811Z,33.67
2022-11-15T07:11:11.902Z,34.90
2022-11-15T07:13:40.488Z,33.90
2022-11-15T07:16:12.165Z,33.92
2022-11-15T07:18:42.971Z,34.03
2022-11-15T07:21:13.743Z,31.70
2022-11-15T07:23:42.992Z,34.07
2022-11-15T07:26:11.889Z,32.35
2022-11-15T07:28:40.650Z,31.77
2022-11-15T07:31:11.117Z,29.83
2022-11-15T07:33:41.269Z,29.40
2022-11-15T07:36:11.509Z,32.08
2022-11-15T07:38:42.960Z,30.08
2022-11-15T07:41:12.472Z,31.25
2022-11-15T07:43:41.109Z,31.95
2022-11-15T07:46:11.339Z,31.85
2022-11-15T07:48:44.907Z,31.40
2022-11-15T07:51:15.971Z,31.83
2022-11-15T07:53:44.970Z,30.75
2022-11-15T07:56:14.309Z,32.83
2022-11-15T07:58:43.285Z,32.00
2022-11-15T08:01:13.626Z,31.00
2022-11-15T08:03:43.720Z,31.65
2022-11-15T08:06:12.366Z,31.73
2022-11-15T08:08:40.970Z,29.63
2022-11-15T08:11:09.558Z,29.88
2022-11-15T08:13:38.139Z,31.48
2022-11-15T08:16:12.661Z,30.67
2022-11-15T08:19:19.621Z,30.10
2022-11-15T08:22:51.486Z,32.55
2022-11-15T08:25:18.898Z,30.45
2022-11-15T08:27:49.757Z,29.83
2022-11-15T08:30:18.975Z,32.92
2022-11-15T08:32:47.740Z,32.28
2022-11-15T08:35:16.679Z,29.85
2022-11-15T08:37:46.846Z,28.95
2022-11-15T08:40:15.991Z,29.98
2022-11-15T08:42:47.473Z,31.85
2022-11-15T08:45:17.032Z,31.67
2022-11-15T08:47:49.724Z,30.55
2022-11-15T08:50:21.520Z,31.17
2022-11-15T08:52:52.205Z,31.58
2022-11-15T08:55:24.313Z,30.08
2022-11-15T08:57:55.640Z,30.67
2022-11-15T09:00:26.408Z,30.15
2022-11-15T09:02:55.130Z,31.30
2022-11-15T09:05:25.839Z,31.98
2022-11-15T09:07:59.155Z,31.80
2022-11-15T09:10:29.774Z,30.00
2022-11-15T09:12:59.843Z,30.60
2022-11-15T09:15:28.474Z,30.52
2022-11-15T09:18:00.484Z,28.90
2022-11-15T09:20:29.475Z,29.67
2022-11-15T09:23:03.752Z,32.25
2022-11-15T09:25:32.978Z,29.33
2022-11-15T09:28:08.580Z,30.13
2022-11-15T09:30:37.175Z,32.55
2022-11-15T09:33:10.280Z,30.25
2022-11-15T09:35:39.207Z,30.80
2022-11-15T09:38:09.352Z,30.40
2022-11-15T09:40:40.187Z,31.42
2022-11-15T09:43:30.319Z,41.15
2022-11-15T09:46:17.334Z,30.85
2022-11-15T09:48:54.762Z,31.73
2022-11-15T09:51:31.221Z,29.95
2022-11-15T09:54:46.083Z,32.05
2022-11-15T09:57:15.943Z,30.48
2022-11-15T10:00:44.710Z,31.48
2022-11-15T10:03:15.326Z,30.70
2022-11-15T10:05:46.810Z,32.55
2022-11-15T10:08:52.953Z,30.20
2022-11-15T10:11:42.263Z,31.98
2022-11-15T10:14:16.093Z,33.35
2022-11-15T10:17:23.725Z,31.27
2022-11-15T10:20:15.174Z,32.22
2022-11-15T10:22:49.482Z,32.13
2022-11-15T10:25:23.434Z,31.27
2022-11-15T10:28:08.813Z,30.00
2022-11-15T10:30:40.971Z,35.55
2022-11-15T10:33:34.853Z,33.05
2022-11-15T10:36:26.743Z,34.75
2022-11-15T10:39:00.146Z,34.17
2022-11-15T10:41:43.150Z,34.10
2022-11-15T10:44:27.212Z,33.00
2022-11-15T10:47:24.544Z,31.95
2022-11-15T10:50:01.523Z,33.53
2022-11-15T10:52:33.722Z,34.88
2022-11-15T10:55:15.194Z,32.50
2022-11-15T10:57:53.633Z,35.05
2022-11-15T11:00:48.531Z,32.92
2022-11-15T11:03:32.319Z,33.58
2022-11-15T11:06:11.393Z,33.47
2022-11-15T11:08:40.626Z,33.95
2022-11-15T11:11:10.098Z,34.80
2022-11-15T11:13:41.286Z,32.90
2022-11-15T11:16:43.938Z,34.95
2022-11-15T11:19:41.414Z,37.28
2022-11-15T11:22:24.928Z,36.03
2022-11-15T11:25:13.732Z,33.75
2022-11-15T11:28:01.517Z,37.83
2022-11-15T11:30:49.100Z,34.63
2022-11-15T11:33:29.194Z,35.42
2022-11-15T11:36:13.946Z,35.92
2022-11-15T11:39:21.511Z,42.15
2022-11-15T11:42:06.025Z,43.45
2022-11-15T11:44:58.238Z,37.20
2022-11-15T11:47:34.793Z,39.65
2022-11-15T11:50:17.666Z,38.35
2022-11-15T11:53:04.554Z,40.70
2022-11-15T11:55:39.790Z,36.53
2022-11-15T11:58:18.238Z,37.03
2022-11-15T12:00:54.349Z,37.47
2022-11-15T12:03:32.314Z,37.92
2022-11-15T12:06:07.513Z,38.70
2022-11-15T12:08:48.399Z,37.67
2022-11-15T12:11:23.539Z,39.05
2022-11-15T12:14:00.518Z,37.45
2022-11-15T12:16:32.173Z,38.78
2022-11-15T12:19:05.841Z,39.05
2022-11-15T12:21:47.514Z,38.72
2022-11-15T12:24:22.856Z,41.03
2022-11-15T12:27:00.252Z,40.90
2022-11-15T12:29:49.625Z,39.90
2022-11-15T12:32:29.356Z,40.42
2022-11-15T12:35:00.041Z,43.30
2022-11-15T12:37:52.747Z,39.83
2022-11-15T12:40:37.105Z,46.92
2022-11-15T12:43:42.040Z,43.03
2022-11-15T12:46:21.981Z,42.22
2022-11-15T12:48:55.638Z,42.97
2022-11-15T12:52:07.431Z,42.97
2022-11-15T12:55:00.255Z,41.80
2022-11-15T12:57:41.729Z,40.33
2022-11-15T13:00:48.085Z,38.03
2022-11-15T13:03:30.017Z,39.97
2022-11-15T13:06:10.052Z,41.05
2022-11-15T13:08:51.754Z,40.55
2022-11-15T13:11:52.741Z,38.28
2022-11-15T13:15:00.683Z,40.95
2022-11-15T13:17:41.293Z,39.20
2022-11-15T13:20:34.946Z,38.42
2022-11-15T13:23:17.083Z,37.05
2022-11-15T13:26:17.624Z,40.22
2022-11-15T13:28:52.924Z,39.45
2022-11-15T13:31:36.971Z,38.92
2022-11-15T13:34:50.017Z,38.30
2022-11-15T13:37:32.217Z,41.15
2022-11-15T13:40:23.172Z,37.60
2022-11-15T13:42:51.982Z,38.55
2022-11-15T13:45:22.677Z,38.13
2022-11-15T13:47:57.881Z,40.40
2022-11-15T13:50:35.534Z,38.53
2022-11-15T13:53:06.772Z,39.47
2022-11-15T13:55:35.990Z,38.15
2022-11-15T13:58:07.920Z,39.60
2022-11-15T14:00:45.536Z,39.67
2022-11-15T14:03:29.744Z,38.85
2022-11-15T14:06:13.191Z,39.90
2022-11-15T14:08:43.116Z,40.00
2022-11-15T14:11:21.478Z,39.35
2022-11-15T14:14:15.114Z,40.38
2022-11-15T14:16:47.868Z,40.03
2022-11-15T14:19:41.429Z,37.95
2022-11-15T14:22:22.971Z,39.05
2022-11-15T14:25:21.768Z,39.47
2022-11-15T14:28:18.530Z,37.03
2022-11-15T14:30:57.754Z,37.85
2022-11-15T14:33:56.372Z,37.60
2022-11-15T14:36:27.074Z,35.47
2022-11-15T14:38:56.349Z,39.05
2022-11-15T14:41:31.648Z,36.38
2022-11-15T14:44:01.393Z,36.83
2022-11-15T14:46:30.241Z,36.90
2022-11-15T14:49:00.731Z,41.10
2022-11-15T14:51:35.851Z,36.90
2022-11-15T14:54:04.536Z,47.67
2022-11-15T14:56:33.124Z,44.67
2022-11-15T14:59:01.773Z,35.40
2022-11-15T15:01:30.431Z,34.33
2022-11-15T15:04:00.656Z,35.10
2022-11-15T15:06:30.293Z,35.80
2022-11-15T15:08:59.245Z,35.58
2022-11-15T15:11:33.216Z,43.25
2022-11-15T15:14:27.803Z,44.95
2022-11-15T15:17:01.649Z,47.10
2022-11-15T15:19:33.969Z,45.25
2022-11-15T15:22:02.801Z,45.15
2022-11-15T15:24:37.430Z,44.92
2022-11-15T15:27:06.198Z,41.50
2022-11-15T15:29:34.871Z,45.38
2022-11-15T15:32:03.865Z,54.45
2022-11-15T15:34:34.025Z,48.20
2022-11-15T15:37:25.380Z,41.70
2022-11-15T15:39:55.490Z,34.63
2022-11-15T15:42:25.421Z,32.80
2022-11-15T15:44:54.325Z,34.85
2022-11-15T15:47:25.316Z,34.70
2022-11-15T15:49:55.615Z,33.17
2022-11-15T15:52:24.442Z,33.08
2022-11-15T15:54:55.030Z,34.80
2022-11-15T15:57:23.974Z,37.55
2022-11-15T15:59:55.272Z,38.35
2022-11-15T16:02:24.082Z,37.83
2022-11-15T16:04:54.499Z,36.97
2022-11-15T16:07:25.670Z,34.47
2022-11-15T16:10:05.009Z,34.45
2022-11-15T16:12:36.734Z,33.15
2022-11-15T16:15:06.494Z,39.63
2022-11-15T16:17:42.144Z,35.40
2022-11-15T16:20:32.222Z,35.47
2022-11-15T16:23:07.569Z,34.92
2022-11-15T16:25:43.318Z,35.03
2022-11-15T16:28:23.315Z,35.55
2022-11-15T16:31:02.070Z,39.10
2022-11-15T16:33:31.262Z,37.50
2022-11-15T16:36:02.232Z,39.83
2022-11-15T16:38:32.441Z,39.65
2022-11-15T16:41:01.795Z,40.75
2022-11-15T16:43:30.615Z,36.78
2022-11-15T16:45:59.463Z,38.58
2022-11-15T16:48:32.208Z,41.35
2022-11-15T16:51:10.765Z,39.63
2022-11-15T16:53:39.759Z,39.67
2022-11-15T16:56:24.023Z,42.05
2022-11-15T16:58:53.215Z,45.45
2022-11-15T17:01:26.171Z,40.88
2022-11-15T17:03:55.807Z,42.30
2022-11-15T17:06:28.635Z,59.33
2022-11-15T17:08:57.536Z,66.75
2022-11-15T17:11:26.334Z,47.60
2022-11-15T17:14:00.185Z,46.70
2022-11-15T17:16:28.978Z,46.20
2022-11-15T17:18:57.808Z,44.72
2022-11-15T17:21:32.561Z,42.45
2022-11-15T17:24:05.621Z,43.40
2022-11-15T17:28:23.342Z,46.72
2022-11-15T17:30:58.636Z,44.28
2022-11-15T17:33:28.306Z,46.15
2022-11-15T17:35:58.604Z,47.10
2022-11-15T17:38:29.991Z,47.88
2022-11-15T17:41:04.216Z,47.45
2022-11-15T17:43:35.243Z,44.88
2022-11-15T17:47:06.072Z,46.28
2022-11-15T17:50:19.337Z,46.17
2022-11-15T17:57:24.262Z,46.47
2022-11-15T18:05:36.232Z,47.92
2022-11-15T18:16:37.000Z,56.58
2022-11-15T18:19:48.198Z,59.88
2022-11-15T18:22:50.164Z,61.40
2022-11-15T18:29:32.965Z,62.08
2022-11-15T18:32:32.269Z,61.45
2022-11-15T18:35:01.447Z,62.90
2022-11-15T18:37:53.726Z,60.13
2022-11-15T18:40:22.583Z,55.78
2022-11-15T18:42:55.122Z,63.15
2022-11-15T18:45:25.416Z,62.03
2022-11-15T18:47:54.185Z,61.10
2022-11-15T18:50:22.919Z,66.93
2022-11-15T18:52:51.527Z,60.95
2022-11-15T18:55:20.222Z,72.72
2022-11-15T18:57:48.843Z,67.25
2022-11-15T19:00:19.419Z,67.78
2022-11-15T19:02:49.452Z,67.10
2022-11-15T19:05:21.484Z,64.30
2022-11-15T19:07:50.576Z,63.65
2022-11-15T19:10:19.408Z,68.68
2022-11-15T19:12:49.459Z,66.28
2022-11-15T19:15:18.319Z,68.18
2022-11-15T19:17:50.161Z,74.32
2022-11-15T19:20:42.024Z,94.15
2022-11-15T19:23:10.631Z,80.10
2022-11-15T19:25:39.381Z,96.00
2022-11-15T19:28:07.970Z,79.07
2022-11-15T19:30:36.588Z,110.15
2022-11-15T19:33:06.632Z,81.15
2022-11-15T19:35:35.344Z,79.55
2022-11-15T19:38:04.107Z,72.97
2022-11-15T19:40:34.538Z,69.50
2022-11-15T19:43:03.327Z,67.90
2022-11-15T19:45:32.203Z,73.07
2022-11-15T19:48:00.943Z,73.53
2022-11-15T19:50:31.330Z,98.35
2022-11-15T19:53:00.580Z,124.28
2022-11-15T19:55:29.454Z,97.82
2022-11-15T19:57:58.249Z,106.63
2022-11-15T20:00:27.093Z,96.32
2022-11-15T20:02:55.989Z,98.05
2022-11-15T20:05:24.706Z,89.50
2022-11-15T20:07:55.099Z,71.80
2022-11-15T20:10:23.882Z,79.30
2022-11-15T20:12:57.920Z,93.75
2022-11-15T20:15:29.275Z,87.10
2022-11-15T20:18:03.476Z,84.85
2022-11-15T20:20:35.923Z,83.10
2022-11-15T20:23:06.164Z,82.65
2022-11-15T20:25:41.837Z,69.68
2022-11-15T20:28:19.542Z,67.40
2022-11-15T20:30:49.941Z,68.93
2022-11-15T20:33:18.839Z,75.45
2022-11-15T20:35:48.551Z,68.72
2022-11-15T20:38:24.815Z,76.47
2022-11-15T20:40:59.876Z,80.32
2022-11-15T20:43:37.537Z,90.82
2022-11-15T20:46:11.015Z,87.70
2022-11-15T20:48:40.142Z,93.20
2022-11-15T20:51:13.246Z,90.93
2022-11-15T20:53:44.299Z,82.03
2022-11-15T20:56:15.925Z,79.75
2022-11-15T20:58:45.929Z,71.25
2022-11-15T21:01:17.865Z,72.47
2022-11-15T21:03:46.731Z,82.88
2022-11-15T21:06:15.465Z,99.50
2022-11-15T21:09:03.117Z,100.07
2022-11-15T21:11:49.299Z,92.88
2022-11-15T21:14:18.050Z,92.78
2022-11-15T21:16:46.816Z,102.47
2022-11-15T21:19:15.515Z,86.15
2022-11-15T21:21:44.247Z,82.97
2022-11-15T21:24:14.683Z,76.57
2022-11-15T21:26:43.465Z,69.65
2022-11-15T21:29:22.700Z,74.13
2022-11-15T21:31:53.458Z,68.40
2022-11-15T21:34:22.570Z,76.25
2022-11-15T21:36:51.174Z,72.82
2022-11-15T21:39:21.177Z,77.22
2022-11-15T21:41:50.076Z,78.18
2022-11-15T21:44:18.771Z,72.07
2022-11-15T21:46:47.534Z,82.68
2022-11-15T21:49:16.466Z,79.50
2022-11-15T21:51:45.386Z,75.68
2022-11-15T21:54:14.506Z,76.40
2022-11-15T21:56:44.648Z,79.28
2022-11-15T21:59:13.307Z,75.55
2022-11-15T22:01:59.035Z,81.88
2022-11-15T22:04:27.717Z,79.35
2022-11-15T22:06:56.418Z,78.15
2022-11-15T22:09:25.152Z,77.45
2022-11-15T22:11:55.203Z,73.50
2022-11-15T22:14:23.835Z,78.82
2022-11-15T22:16:52.444Z,79.63
2022-11-15T22:19:21.290Z,77.95
2022-11-15T22:21:49.854Z,84.57
2022-11-15T22:24:18.769Z,86.93
2022-11-15T22:26:47.407Z,86.65
2022-11-15T22:29:17.471Z,84.50
2022-11-15T22:31:46.207Z,85.10
2022-11-15T22:34:15.002Z,90.07
2022-11-15T22:37:13.163Z,84.47
2022-11-15T22:39:34.519Z,87.78
2022-11-15T22:42:03.089Z,79.07
2022-11-15T22:44:33.130Z,98.68
2022-11-15T22:47:01.661Z,92.93
2022-11-15T22:49:30.210Z,141.93
2022-11-15T22:51:58.814Z,101.85
2022-11-15T22:54:27.368Z,93.93
2022-11-15T22:56:56.843Z,95.57
2022-11-15T22:59:25.433Z,91.10
2022-11-15T23:01:55.416Z,89.85
2022-11-15T23:04:24.221Z,88.70
2022-11-15T23:06:52.791Z,97.10
2022-11-15T23:09:21.433Z,86.72
2022-11-15T23:12:21.920Z,86.93
2022-11-15T23:14:50.628Z,79.25
2022-11-15T23:17:20.545Z,84.65
2022-11-15T23:19:49.349Z,81.57
2022-11-15T23:22:35.638Z,77.32
2022-11-15T23:25:04.802Z,76.97
2022-11-15T23:27:33.387Z,73.35
2022-11-15T23:30:19.226Z,76.22
2022-11-15T23:33:06.603Z,83.57
2022-11-15T23:35:35.545Z,80.78
2022-11-15T23:38:04.160Z,69.65
2022-11-15T23:40:32.805Z,70.18
2022-11-15T23:43:01.384Z,68.32
2022-11-15T23:45:30.311Z,69.70
2022-11-15T23:48:01.698Z,67.97
2022-11-15T23:50:32.736Z,71.03
2022-11-15T23:53:01.341Z,78.18
2022-11-15T23:55:30.078Z,70.50
2022-11-15T23:57:59.602Z,84.10
